Time;durP1;ratioP1;P1;durP2;ratioP2;P2;SDS_P1;SDS_P2;PMS_P1;PMS_P2;Temp;Humidity;BMP_temperature;BMP_pressure;BME280_temperature;BME280_humidity;BME280_pressure;Samples;Min_cycle;Max_cycle;Signal;HPM_P1;HPM_P2
2022/02/27 00:01:53;;;;;;;20.10;10.00;;;3.20;1.00;;;;;;5023809;28;20205;-59
2022/02/27 00:04:20;;;;;;;25.70;10.00;;;3.20;1.00;;;;;;5025189;28;20213;-57
2022/02/27 00:06:47;;;;;;;18.47;9.57;;;3.20;1.00;;;;;;5025956;28;20223;-57
2022/02/27 00:09:14;;;;;;;18.70;9.70;;;3.20;1.00;;;;;;5023915;28;20220;-58
2022/02/27 00:11:41;;;;;;;20.23;9.80;;;3.20;1.00;;;;;;5024589;28;20197;-58
2022/02/27 00:14:10;;;;;;;19.50;9.10;;;3.10;1.00;;;;;;5024615;28;20662;-56
2022/02/27 00:16:37;;;;;;;30.70;9.87;;;3.20;1.00;;;;;;5028292;28;20272;-57
2022/02/27 00:19:04;;;;;;;21.10;9.63;;;3.20;1.00;;;;;;5022380;28;20204;-58
2022/02/27 00:21:31;;;;;;;22.70;10.20;;;3.10;1.00;;;;;;5024114;28;20292;-59
2022/02/27 00:23:57;;;;;;;19.80;9.77;;;3.20;1.00;;;;;;5022931;28;20251;-57
2022/02/27 00:26:24;;;;;;;25.87;10.00;;;3.10;1.00;;;;;;5007836;28;20218;-57
2022/02/27 00:28:51;;;;;;;20.67;8.47;;;3.30;1.00;;;;;;5023580;28;20465;-58
2022/02/27 00:31:18;;;;;;;16.63;8.63;;;3.30;1.00;;;;;;5021067;28;20404;-59
2022/02/27 00:33:45;;;;;;;18.87;9.07;;;3.30;1.00;;;;;;5022686;28;20240;-58
2022/02/27 00:36:12;;;;;;;19.93;9.43;;;3.30;1.00;;;;;;5024730;28;20221;-60
2022/02/27 00:38:38;;;;;;;20.90;8.27;;;3.20;1.00;;;;;;5024928;28;20622;-58
2022/02/27 00:41:05;;;;;;;18.67;8.40;;;3.10;1.00;;;;;;5026688;28;21082;-60
2022/02/27 00:43:32;;;;;;;19.47;8.40;;;3.20;1.00;;;;;;5027356;28;20209;-56
2022/02/27 00:45:59;;;;;;;17.87;8.10;;;3.20;1.00;;;;;;5023598;28;20836;-59
2022/02/27 00:48:26;;;;;;;17.53;7.73;;;3.40;1.00;;;;;;5024804;28;20200;-59
2022/02/27 00:50:53;;;;;;;19.50;7.53;;;3.30;1.00;;;;;;5025406;28;20621;-58
2022/02/27 00:53:22;;;;;;;13.13;7.50;;;3.20;1.00;;;;;;5023562;28;20205;-59
2022/02/27 00:55:48;;;;;;;18.33;7.57;;;3.20;1.00;;;;;;5017058;28;20295;-59
2022/02/27 00:58:15;;;;;;;19.53;7.40;;;3.10;1.00;;;;;;5025704;28;20287;-60
2022/02/27 01:00:42;;;;;;;19.00;7.30;;;3.20;1.00;;;;;;5021588;28;20204;-56
2022/02/27 01:03:11;;;;;;;18.93;6.93;;;3.20;99.90;;;;;;5018790;28;20324;-64
2022/02/27 01:05:38;;;;;;;17.43;7.07;;;3.30;99.90;;;;;;5020749;28;20242;-56
2022/02/27 01:08:05;;;;;;;21.00;7.53;;;3.20;99.90;;;;;;5023767;28;21559;-58
2022/02/27 01:10:33;;;;;;;14.90;7.60;;;3.10;99.90;;;;;;5018851;28;20224;-60
2022/02/27 01:13:00;;;;;;;15.93;6.80;;;3.00;99.90;;;;;;5026777;28;20200;-59
2022/02/27 01:15:28;;;;;;;17.27;7.57;;;2.90;1.00;;;;;;5019701;28;20595;-59
2022/02/27 01:17:55;;;;;;;17.23;6.90;;;2.90;1.00;;;;;;5017000;28;20235;-59
2022/02/27 01:20:22;;;;;;;15.00;8.00;;;2.90;1.00;;;;;;5019238;28;20199;-60
2022/02/27 01:22:50;;;;;;;17.70;6.87;;;2.90;1.00;;;;;;5025884;28;20238;-59
2022/02/27 01:25:17;;;;;;;16.83;6.60;;;2.80;1.00;;;;;;5018952;28;20248;-57
2022/02/27 01:27:44;;;;;;;17.70;6.47;;;2.80;1.00;;;;;;5021940;28;20215;-59
2022/02/27 01:30:11;;;;;;;17.07;6.90;;;2.80;1.00;;;;;;5021168;28;20196;-59
2022/02/27 01:32:41;;;;;;;16.73;6.97;;;2.70;1.00;;;;;;5021289;28;20223;-59
2022/02/27 01:35:08;;;;;;;17.43;6.33;;;2.70;1.00;;;;;;5030464;28;20212;-59
2022/02/27 01:37:36;;;;;;;18.67;6.93;;;2.70;1.00;;;;;;5020083;28;20208;-59
2022/02/27 01:40:05;;;;;;;15.20;6.43;;;2.70;1.00;;;;;;5020925;28;20231;-58
2022/02/27 01:42:32;;;;;;;10.60;6.07;;;2.70;1.00;;;;;;5029301;28;20261;-59
2022/02/27 01:45:03;;;;;;;19.90;6.53;;;2.70;1.00;;;;;;5024884;28;20218;-60
2022/02/27 01:47:30;;;;;;;11.80;5.80;;;2.70;1.00;;;;;;5028203;28;20245;-59
2022/02/27 01:49:57;;;;;;;11.87;5.90;;;2.70;1.00;;;;;;5026623;28;20284;-58
2022/02/27 01:52:23;;;;;;;13.77;6.23;;;2.60;1.00;;;;;;5030101;28;20207;-60
2022/02/27 01:54:51;;;;;;;15.20;5.37;;;2.50;1.00;;;;;;5025705;28;20298;-58
2022/02/27 01:57:19;;;;;;;12.87;5.73;;;2.50;1.00;;;;;;5027330;28;20323;-58
2022/02/27 01:59:46;;;;;;;13.30;6.43;;;2.40;1.00;;;;;;5023198;28;20256;-60
2022/02/27 02:02:14;;;;;;;13.17;5.87;;;2.50;1.00;;;;;;5023800;28;21445;-59
2022/02/27 02:04:43;;;;;;;10.83;5.60;;;2.50;1.00;;;;;;5020961;28;20209;-58
2022/02/27 02:07:11;;;;;;;15.17;6.03;;;2.60;1.00;;;;;;5026822;28;20266;-58
2022/02/27 02:09:38;;;;;;;14.17;6.17;;;2.50;1.00;;;;;;5025122;28;20220;-58
2022/02/27 02:12:07;;;;;;;15.43;5.63;;;2.50;1.00;;;;;;5022031;28;20361;-56
2022/02/27 02:14:34;;;;;;;18.43;6.23;;;2.60;1.00;;;;;;5014279;28;20239;-59
2022/02/27 02:17:02;;;;;;;14.93;5.07;;;2.60;1.00;;;;;;5023007;28;20201;-58
2022/02/27 02:19:29;;;;;;;10.50;5.50;;;2.60;1.00;;;;;;5020721;28;20204;-57
2022/02/27 02:22:00;;;;;;;12.43;5.27;;;2.60;1.00;;;;;;5025155;28;20762;-59
2022/02/27 02:24:28;;;;;;;14.00;6.10;;;2.60;1.00;;;;;;5018181;28;20771;-59
2022/02/27 02:26:55;;;;;;;10.53;5.17;;;2.50;1.00;;;;;;5025113;28;20322;-56
2022/02/27 02:29:23;;;;;;;10.93;4.83;;;2.50;1.00;;;;;;5024431;28;20291;-57
2022/02/27 02:31:55;;;;;;;8.47;5.27;;;2.50;1.00;;;;;;5024305;28;20326;-59
2022/02/27 02:34:24;;;;;;;11.67;5.13;;;2.50;1.00;;;;;;5025217;28;20227;-59
2022/02/27 02:36:53;;;;;;;14.90;5.90;;;2.40;1.00;;;;;;5025354;28;20208;-58
2022/02/27 02:39:21;;;;;;;12.73;5.40;;;2.50;1.00;;;;;;5021453;28;20550;-58
2022/02/27 02:41:48;;;;;;;15.90;5.43;;;2.50;1.00;;;;;;5021835;28;20306;-60
2022/02/27 02:44:16;;;;;;;12.57;4.33;;;2.50;1.00;;;;;;5023314;28;20211;-60
2022/02/27 02:46:43;;;;;;;9.73;4.10;;;2.40;1.00;;;;;;5025905;28;20217;-60
2022/02/27 02:49:12;;;;;;;12.33;4.67;;;2.40;1.00;;;;;;5021575;28;20787;-59
2022/02/27 02:51:40;;;;;;;12.70;4.67;;;2.40;1.00;;;;;;5024444;28;20249;-61
2022/02/27 02:54:08;;;;;;;13.80;5.60;;;2.50;1.00;;;;;;5037007;28;20232;-58
2022/02/27 02:56:36;;;;;;;8.37;4.97;;;2.50;1.00;;;;;;5025817;28;20615;-57
2022/02/27 02:59:04;;;;;;;9.57;4.87;;;2.40;1.00;;;;;;5021602;28;20744;-59
2022/02/27 03:01:31;;;;;;;13.37;5.07;;;2.50;1.00;;;;;;5023840;28;20207;-59
2022/02/27 03:04:02;;;;;;;14.67;4.70;;;2.40;1.00;;;;;;5019650;28;20255;-59
2022/02/27 03:06:30;;;;;;;12.03;4.73;;;2.30;1.00;;;;;;5022128;28;20721;-59
2022/02/27 03:08:57;;;;;;;13.50;4.80;;;2.40;1.00;;;;;;5023218;28;20248;-65
2022/02/27 03:11:24;;;;;;;16.33;6.00;;;2.40;1.00;;;;;;5019213;28;20632;-58
2022/02/27 03:13:51;;;;;;;17.40;4.97;;;2.40;1.00;;;;;;5019687;28;20712;-55
2022/02/27 03:16:18;;;;;;;14.67;4.33;;;2.40;1.00;;;;;;5020096;28;20617;-58
2022/02/27 03:18:45;;;;;;;11.00;4.67;;;2.40;1.00;;;;;;5022060;28;20212;-57
2022/02/27 03:21:12;;;;;;;11.10;4.57;;;2.40;1.00;;;;;;5019064;28;20554;-60
2022/02/27 03:23:39;;;;;;;12.90;4.90;;;2.40;1.00;;;;;;5026279;28;20285;-60
2022/02/27 03:26:07;;;;;;;13.40;4.73;;;2.40;1.00;;;;;;5015296;28;20211;-59
2022/02/27 03:28:33;;;;;;;9.67;4.27;;;2.40;1.00;;;;;;5025523;28;20726;-59
2022/02/27 03:31:00;;;;;;;16.20;4.90;;;2.30;1.00;;;;;;5022483;28;20542;-59
2022/02/27 03:33:27;;;;;;;14.57;5.97;;;2.30;1.00;;;;;;5029873;28;20688;-60
2022/02/27 03:35:54;;;;;;;11.70;4.47;;;2.30;1.00;;;;;;5023566;28;20300;-60
2022/02/27 03:38:21;;;;;;;11.17;4.70;;;2.20;1.00;;;;;;5029460;28;20476;-58
2022/02/27 03:40:48;;;;;;;10.70;4.07;;;2.30;1.00;;;;;;5028502;28;20578;-59
2022/02/27 03:43:15;;;;;;;8.47;4.33;;;2.30;1.00;;;;;;5030720;28;20746;-59
2022/02/27 03:45:42;;;;;;;8.27;5.27;;;2.30;1.00;;;;;;5031506;28;20238;-59
2022/02/27 03:48:09;;;;;;;10.40;4.77;;;2.30;1.00;;;;;;5017546;28;20315;-60
2022/02/27 03:50:35;;;;;;;11.00;4.60;;;2.30;1.00;;;;;;5032997;28;20599;-57
2022/02/27 03:53:02;;;;;;;8.07;3.37;;;2.30;1.00;;;;;;5029410;28;20206;-59
2022/02/27 03:55:29;;;;;;;11.53;3.87;;;2.30;1.00;;;;;;5031154;28;20287;-60
2022/02/27 03:57:56;;;;;;;7.57;4.13;;;2.30;1.00;;;;;;5028678;28;20802;-59
2022/02/27 04:00:24;;;;;;;10.63;4.33;;;2.20;1.00;;;;;;5028279;28;20273;-59
2022/02/27 04:02:52;;;;;;;12.70;4.50;;;2.20;1.00;;;;;;5027175;28;20328;-59
2022/02/27 04:05:19;;;;;;;9.50;4.47;;;2.30;1.00;;;;;;5033493;28;20212;-60
2022/02/27 04:07:46;;;;;;;11.60;4.20;;;2.30;1.00;;;;;;5028512;28;20286;-59
2022/02/27 04:10:14;;;;;;;13.07;4.47;;;2.20;1.00;;;;;;5029724;28;20766;-59
2022/02/27 04:12:41;;;;;;;9.00;3.73;;;2.20;1.00;;;;;;5003634;28;20447;-58
2022/02/27 04:15:09;;;;;;;10.40;4.47;;;2.10;1.00;;;;;;5029728;28;20208;-60
2022/02/27 04:17:36;;;;;;;11.17;4.30;;;2.20;1.00;;;;;;5028245;28;20313;-59
2022/02/27 04:20:04;;;;;;;8.37;4.00;;;2.20;1.00;;;;;;5025399;28;20293;-59
2022/02/27 04:22:31;;;;;;;14.33;5.47;;;2.20;1.00;;;;;;5029767;28;20668;-58
2022/02/27 04:24:57;;;;;;;9.70;4.60;;;2.20;1.00;;;;;;5025624;28;20215;-60
2022/02/27 04:27:25;;;;;;;9.87;4.33;;;2.10;1.00;;;;;;5032914;28;20638;-60
2022/02/27 04:29:52;;;;;;;8.60;3.67;;;2.10;1.00;;;;;;5027110;28;20257;-58
2022/02/27 04:32:19;;;;;;;7.77;4.00;;;2.10;1.00;;;;;;5041906;28;20762;-57
2022/02/27 04:34:46;;;;;;;9.30;3.97;;;2.10;1.00;;;;;;5032592;28;20236;-60
2022/02/27 04:37:13;;;;;;;8.80;3.67;;;2.00;1.00;;;;;;5042310;28;20206;-60
2022/02/27 04:39:40;;;;;;;8.07;4.20;;;2.00;1.00;;;;;;5026858;28;20217;-59
2022/02/27 04:42:07;;;;;;;8.27;3.70;;;2.00;1.00;;;;;;5034319;28;20218;-60
2022/02/27 04:44:34;;;;;;;8.23;3.70;;;2.10;1.00;;;;;;5034312;28;20251;-60
2022/02/27 04:47:01;;;;;;;12.47;4.50;;;2.00;1.00;;;;;;5027964;28;20250;-60
2022/02/27 04:49:31;;;;;;;5.27;3.53;;;2.00;1.00;;;;;;5032694;28;20600;-59
2022/02/27 04:51:57;;;;;;;13.20;4.40;;;2.00;1.00;;;;;;5030225;28;20261;-58
2022/02/27 04:54:25;;;;;;;10.23;3.77;;;2.00;1.00;;;;;;5031274;28;20280;-60
2022/02/27 04:56:51;;;;;;;6.33;4.30;;;2.00;1.00;;;;;;5031503;28;20732;-59
2022/02/27 04:59:18;;;;;;;5.53;3.60;;;2.10;1.00;;;;;;5029928;28;20303;-60
2022/02/27 05:01:45;;;;;;;11.13;3.90;;;2.10;1.00;;;;;;5032016;28;20627;-60
2022/02/27 05:04:12;;;;;;;9.83;4.17;;;2.10;1.00;;;;;;5030912;28;20236;-57
2022/02/27 05:06:39;;;;;;;10.97;4.07;;;2.10;1.00;;;;;;5024841;28;20666;-60
2022/02/27 05:09:06;;;;;;;12.50;4.30;;;2.10;1.00;;;;;;5024710;28;20286;-59
2022/02/27 05:11:33;;;;;;;10.30;3.77;;;2.10;1.00;;;;;;5023892;28;20301;-59
2022/02/27 05:14:00;;;;;;;8.47;4.47;;;2.10;1.00;;;;;;5026398;28;20214;-62
2022/02/27 05:16:28;;;;;;;7.50;4.03;;;2.00;1.00;;;;;;5023403;28;20212;-59
2022/02/27 05:18:55;;;;;;;7.83;3.83;;;2.00;1.00;;;;;;5017250;28;20654;-60
2022/02/27 05:21:22;;;;;;;7.97;3.87;;;2.00;1.00;;;;;;5025011;28;20213;-60
2022/02/27 05:23:49;;;;;;;12.93;3.93;;;2.00;1.00;;;;;;5026664;28;20211;-57
2022/02/27 05:26:16;;;;;;;8.80;4.13;;;2.00;1.00;;;;;;5019041;28;20222;-60
2022/02/27 05:28:44;;;;;;;9.13;4.17;;;2.00;1.00;;;;;;5021043;28;20261;-57
2022/02/27 05:31:12;;;;;;;8.83;4.50;;;2.10;1.00;;;;;;5023623;28;20293;-55
2022/02/27 05:33:40;;;;;;;8.80;3.60;;;2.10;1.00;;;;;;5023096;28;20204;-58
2022/02/27 05:36:07;;;;;;;14.83;5.93;;;2.10;1.00;;;;;;5028310;28;20248;-56
2022/02/27 05:38:34;;;;;;;7.80;4.53;;;2.10;1.00;;;;;;5020524;28;20204;-58
2022/02/27 05:41:01;;;;;;;7.83;4.03;;;2.10;1.00;;;;;;5021109;28;20196;-58
2022/02/27 05:43:28;;;;;;;7.73;4.33;;;2.10;1.00;;;;;;5016904;28;20291;-58
2022/02/27 05:45:55;;;;;;;9.23;4.37;;;2.10;1.00;;;;;;5024712;28;20212;-58
2022/02/27 05:48:22;;;;;;;10.20;4.40;;;2.10;1.00;;;;;;5021310;28;20219;-58
2022/02/27 05:50:49;;;;;;;14.87;4.53;;;2.00;1.00;;;;;;5026077;28;20192;-57
2022/02/27 05:53:17;;;;;;;9.07;3.93;;;1.90;1.00;;;;;;5021779;28;20208;-56
2022/02/27 05:55:44;;;;;;;8.83;3.73;;;1.90;1.00;;;;;;5026856;28;20653;-59
2022/02/27 05:58:11;;;;;;;10.03;4.43;;;1.80;1.00;;;;;;5025206;28;20715;-60
2022/02/27 06:00:38;;;;;;;6.63;4.50;;;1.80;1.00;;;;;;5014357;28;20203;-59
2022/02/27 06:03:05;;;;;;;15.60;5.70;;;1.70;1.00;;;;;;5022388;28;20240;-59
2022/02/27 06:05:32;;;;;;;10.77;4.53;;;1.70;1.00;;;;;;5026025;28;20213;-60
2022/02/27 06:07:58;;;;;;;10.43;4.50;;;1.70;1.00;;;;;;5022753;28;20623;-59
2022/02/27 06:10:25;;;;;;;8.77;4.30;;;1.70;1.00;;;;;;5021645;28;20706;-60
2022/02/27 06:12:52;;;;;;;8.13;4.00;;;1.70;1.00;;;;;;5020126;28;20282;-59
2022/02/27 06:15:19;;;;;;;10.23;4.50;;;1.70;1.00;;;;;;5025962;28;20204;-60
2022/02/27 06:17:46;;;;;;;9.87;4.17;;;1.80;1.00;;;;;;5023518;28;20270;-60
2022/02/27 06:20:13;;;;;;;7.30;4.03;;;1.80;1.00;;;;;;5020617;28;20246;-60
2022/02/27 06:22:45;;;;;;;10.80;4.40;;;1.80;1.00;;;;;;5025057;28;20245;-59
2022/02/27 06:25:13;;;;;;;10.07;3.87;;;1.70;1.00;;;;;;5023324;28;20202;-58
2022/02/27 06:27:44;;;;;;;11.60;5.00;;;1.70;1.00;;;;;;5025427;28;20392;-56
2022/02/27 06:30:21;;;;;;;13.17;4.80;;;1.70;1.00;;;;;;5021870;28;20286;-59
2022/02/27 06:32:49;;;;;;;9.63;5.57;;;1.70;1.00;;;;;;5020739;28;20608;-58
2022/02/27 06:35:19;;;;;;;8.97;3.97;;;1.60;1.00;;;;;;5019342;28;20698;-58
2022/02/27 06:37:45;;;;;;;7.90;4.60;;;1.70;1.00;;;;;;5025347;28;20294;-59
2022/02/27 06:40:13;;;;;;;13.07;4.03;;;1.70;1.00;;;;;;5023057;28;20683;-58
2022/02/27 06:42:42;;;;;;;9.40;4.33;;;1.60;1.00;;;;;;5021932;28;20233;-58
2022/02/27 06:45:09;;;;;;;8.13;3.43;;;1.70;1.00;;;;;;5021149;28;20301;-59
2022/02/27 06:47:36;;;;;;;9.40;4.33;;;1.70;1.00;;;;;;5020878;28;20333;-59
2022/02/27 06:50:05;;;;;;;9.27;4.60;;;1.70;1.00;;;;;;5024634;28;20250;-58
2022/02/27 06:52:32;;;;;;;8.23;4.13;;;1.70;1.00;;;;;;5023697;28;20231;-55
2022/02/27 06:54:59;;;;;;;9.30;4.27;;;1.80;1.00;;;;;;5021362;28;20205;-58
2022/02/27 06:57:25;;;;;;;7.37;4.33;;;1.80;1.00;;;;;;5025230;28;20829;-60
2022/02/27 06:59:52;;;;;;;8.30;4.10;;;1.80;1.00;;;;;;5016707;28;20255;-60
2022/02/27 07:02:20;;;;;;;12.80;3.70;;;1.90;1.00;;;;;;5016465;28;20330;-60
2022/02/27 07:04:47;;;;;;;9.70;4.43;;;2.00;1.00;;;;;;5019878;28;20230;-59
2022/02/27 07:07:14;;;;;;;12.47;3.77;;;2.10;1.00;;;;;;5021480;28;20227;-58
2022/02/27 07:09:41;;;;;;;8.50;4.13;;;2.10;1.00;;;;;;5023209;28;20219;-58
2022/02/27 07:12:08;;;;;;;6.97;3.57;;;2.10;1.00;;;;;;5031944;28;20298;-59
2022/02/27 07:14:35;;;;;;;10.63;4.00;;;2.10;99.90;;;;;;5031765;28;20211;-58
2022/02/27 07:17:02;;;;;;;5.47;3.37;;;2.20;1.00;;;;;;5026040;28;20302;-59
2022/02/27 07:19:33;;;;;;;14.97;4.13;;;2.20;99.90;;;;;;5033166;28;20725;-60
2022/02/27 07:22:00;;;;;;;7.70;3.67;;;2.30;99.90;;;;;;5030912;28;20299;-60
2022/02/27 07:24:27;;;;;;;10.23;3.50;;;2.30;99.90;;;;;;5028264;28;20218;-59
2022/02/27 07:26:53;;;;;;;8.50;3.57;;;2.40;99.90;;;;;;5023396;28;20223;-58
2022/02/27 07:29:20;;;;;;;6.33;4.50;;;2.50;99.90;;;;;;5025936;28;20212;-58
2022/02/27 07:31:47;;;;;;;8.30;3.47;;;2.60;17.20;;;;;;5018369;28;20211;-62
2022/02/27 07:34:14;;;;;;;5.87;3.83;;;2.70;1.00;;;;;;5021510;28;20232;-59
2022/02/27 07:36:41;;;;;;;9.67;4.03;;;2.70;1.00;;;;;;5023418;28;20207;-59
2022/02/27 07:39:08;;;;;;;6.33;3.60;;;2.90;1.00;;;;;;5021343;28;20700;-57
2022/02/27 07:41:36;;;;;;;7.20;3.30;;;2.90;1.00;;;;;;5017456;28;20698;-59
2022/02/27 07:44:03;;;;;;;6.00;3.23;;;3.10;1.00;;;;;;5019011;28;20208;-59
2022/02/27 07:46:31;;;;;;;8.50;3.90;;;3.10;99.90;;;;;;5025608;28;20834;-59
2022/02/27 07:48:58;;;;;;;7.37;3.00;;;3.30;31.40;;;;;;5023097;28;20220;-58
2022/02/27 07:51:27;;;;;;;6.90;3.10;;;3.50;1.00;;;;;;5019278;28;20246;-59
2022/02/27 07:53:54;;;;;;;6.87;3.60;;;3.60;1.00;;;;;;5021637;28;20694;-58
2022/02/27 07:56:22;;;;;;;6.77;3.13;;;3.70;99.90;;;;;;5016819;28;20207;-58
2022/02/27 07:58:49;;;;;;;10.33;3.00;;;3.80;1.00;;;;;;5009756;28;20212;-60
2022/02/27 08:01:16;;;;;;;5.00;2.80;;;4.00;1.00;;;;;;5024875;28;20369;-58
2022/02/27 08:03:44;;;;;;;10.07;3.17;;;4.20;99.90;;;;;;5015474;28;20233;-59
2022/02/27 08:06:10;;;;;;;9.77;3.67;;;4.30;99.90;;;;;;5012397;28;20212;-56
2022/02/27 08:08:37;;;;;;;8.67;3.07;;;4.40;1.00;;;;;;5018522;28;20336;-59
2022/02/27 08:11:07;;;;;;;10.10;2.90;;;4.60;1.00;;;;;;5022738;28;20278;-58
2022/02/27 08:13:35;;;;;;;10.93;3.27;;;4.80;1.00;;;;;;5021197;28;20307;-57
2022/02/27 08:16:02;;;;;;;4.53;2.47;;;5.00;1.00;;;;;;5023261;28;20200;-59
2022/02/27 08:18:29;;;;;;;4.73;2.70;;;5.20;99.90;;;;;;5024584;28;20203;-59
2022/02/27 08:20:56;;;;;;;4.23;2.83;;;5.40;99.90;;;;;;5027026;28;20243;-59
2022/02/27 08:23:24;;;;;;;9.10;3.30;;;5.60;1.00;;;;;;5025110;28;20208;-57
2022/02/27 08:25:53;;;;;;;8.07;2.53;;;5.70;99.90;;;;;;5029322;28;20295;-59
2022/02/27 08:28:28;;;;;;;8.70;2.97;;;5.80;1.00;;;;;;5023650;28;20231;-59
2022/02/27 08:30:56;;;;;;;7.03;2.53;;;6.00;1.00;;;;;;5016998;28;20211;-60
2022/02/27 08:33:22;;;;;;;9.57;2.90;;;6.30;1.00;;;;;;5019865;28;20232;-58
2022/02/27 08:35:49;;;;;;;9.97;3.20;;;6.50;1.00;;;;;;5025180;28;20209;-58
2022/02/27 08:38:16;;;;;;;7.20;2.60;;;6.40;1.00;;;;;;5018336;28;20304;-60
2022/02/27 08:40:44;;;;;;;7.73;2.87;;;6.80;1.00;;;;;;5019962;28;20232;-58
2022/02/27 08:43:10;;;;;;;7.20;2.90;;;7.00;99.90;;;;;;5017199;28;20217;-59
2022/02/27 08:45:39;;;;;;;8.33;2.90;;;7.10;99.90;;;;;;5022396;28;20558;-58
2022/02/27 08:48:06;;;;;;;8.97;3.27;;;7.30;1.00;;;;;;5015290;28;21135;-60
2022/02/27 08:50:33;;;;;;;8.07;3.13;;;7.40;99.90;;;;;;5024934;28;20327;-58
2022/02/27 08:53:00;;;;;;;6.60;2.67;;;7.80;1.00;;;;;;5022478;28;20265;-60
2022/02/27 08:55:27;;;;;;;6.23;3.20;;;7.80;99.90;;;;;;5031137;28;20632;-59
2022/02/27 08:57:55;;;;;;;7.70;3.07;;;8.10;1.00;;;;;;5026907;28;21092;-59
2022/02/27 09:00:22;;;;;;;5.90;3.03;;;8.20;1.00;;;;;;5039468;28;20197;-59
2022/02/27 09:02:49;;;;;;;5.73;2.73;;;8.60;99.90;;;;;;5027595;28;20493;-59
2022/02/27 09:05:16;;;;;;;11.33;2.90;;;8.70;1.00;;;;;;5021568;28;20202;-59
2022/02/27 09:07:45;;;;;;;7.07;3.43;;;8.90;1.00;;;;;;5022133;28;20643;-59
2022/02/27 09:10:15;;;;;;;9.33;3.17;;;8.70;99.90;;;;;;5020811;28;20288;-60
2022/02/27 09:12:44;;;;;;;8.57;3.13;;;8.80;1.00;;;;;;5030167;28;20674;-60
2022/02/27 09:15:13;;;;;;;8.40;3.00;;;8.70;99.90;;;;;;5025825;28;20568;-58
2022/02/27 09:17:41;;;;;;;8.27;2.80;;;8.90;99.90;;;;;;5018834;28;20212;-60
2022/02/27 09:20:09;;;;;;;7.17;3.03;;;9.30;99.90;;;;;;5024776;28;20642;-60
2022/02/27 09:22:36;;;;;;;6.10;2.93;;;9.10;15.90;;;;;;5022948;28;20232;-58
2022/02/27 09:25:04;;;;;;;6.33;3.07;;;9.30;99.90;;;;;;5022830;28;20232;-60
2022/02/27 09:27:31;;;;;;;8.63;3.37;;;9.30;99.90;;;;;;5025069;28;20289;-59
2022/02/27 09:29:58;;;;;;;5.37;2.90;;;9.30;99.90;;;;;;5025108;28;20661;-59
2022/02/27 09:32:25;;;;;;;6.23;2.80;;;9.20;1.00;;;;;;5026771;28;20207;-60
2022/02/27 09:34:53;;;;;;;6.83;3.03;;;9.10;1.00;;;;;;5025615;28;20664;-60
2022/02/27 09:37:19;;;;;;;5.93;2.60;;;9.20;1.00;;;;;;5029709;28;20262;-60
2022/02/27 09:39:47;;;;;;;8.03;2.60;;;8.50;99.90;;;;;;5030958;28;20683;-59
2022/02/27 09:42:14;;;;;;;6.10;2.73;;;8.80;1.00;;;;;;5030225;28;20743;-59
2022/02/27 09:44:43;;;;;;;6.27;3.17;;;8.80;99.90;;;;;;5033413;28;20528;-60
2022/02/27 09:47:14;;;;;;;7.03;2.23;;;9.10;36.80;;;;;;5032370;28;20208;-59
2022/02/27 09:49:45;;;;;;;7.77;2.97;;;9.10;1.00;;;;;;5019728;28;20217;-60
2022/02/27 09:52:18;;;;;;;5.70;2.50;;;9.10;85.10;;;;;;5029440;28;20532;-59
2022/02/27 09:54:46;;;;;;;4.40;2.83;;;9.30;45.70;;;;;;5027016;28;20234;-60
2022/02/27 09:57:16;;;;;;;5.93;2.80;;;9.10;99.90;;;;;;5035436;28;20625;-59
2022/02/27 09:59:43;;;;;;;5.23;2.80;;;9.10;99.90;;;;;;5028747;28;20239;-60
2022/02/27 10:02:12;;;;;;;5.77;2.50;;;9.20;99.90;;;;;;5031644;28;20292;-59
2022/02/27 10:04:41;;;;;;;5.97;3.20;;;9.00;99.90;;;;;;5024226;28;20232;-60
2022/02/27 10:07:10;;;;;;;5.27;2.70;;;9.00;1.00;;;;;;5023157;28;20286;-60
2022/02/27 10:09:38;;;;;;;5.40;2.63;;;9.10;99.90;;;;;;5022780;28;20265;-60
2022/02/27 10:12:16;;;;;;;5.17;2.97;;;9.00;1.00;;;;;;5022030;28;20569;-59
2022/02/27 10:15:07;;;;;;;7.37;2.80;;;9.20;1.00;;;;;;5032880;28;20233;-60
2022/02/27 10:17:37;;;;;;;7.33;2.70;;;9.00;99.90;;;;;;5033957;28;20692;-61
2022/02/27 10:20:06;;;;;;;3.87;2.47;;;9.10;99.90;;;;;;5022968;28;20207;-60
2022/02/27 10:22:36;;;;;;;4.80;2.67;;;9.10;99.90;;;;;;5026417;28;20217;-60
2022/02/27 10:25:10;;;;;;;6.70;2.70;;;9.20;99.90;;;;;;5031673;28;20225;-61
2022/02/27 10:27:52;;;;;;;7.23;2.90;;;8.90;99.90;;;;;;5034311;28;20618;-61
2022/02/27 10:30:32;;;;;;;3.53;2.50;;;9.40;99.90;;;;;;5032349;28;20224;-60
2022/02/27 10:33:06;;;;;;;6.43;2.77;;;9.70;1.00;;;;;;5029832;28;20296;-61
2022/02/27 10:35:48;;;;;;;4.30;2.97;;;9.60;1.00;;;;;;5038731;28;20556;-60
2022/02/27 10:38:28;;;;;;;6.80;3.57;;;9.60;1.00;;;;;;5029104;28;20202;-60
2022/02/27 10:40:55;;;;;;;7.37;2.57;;;9.40;99.90;;;;;;5029907;28;20246;-61
2022/02/27 10:43:22;;;;;;;3.80;2.80;;;9.70;1.00;;;;;;5029180;28;20203;-61
2022/02/27 10:46:05;;;;;;;5.17;2.97;;;9.90;99.90;;;;;;5029582;28;20203;-60
2022/02/27 10:48:32;;;;;;;7.10;3.07;;;9.60;99.90;;;;;;5029879;28;20310;-61
2022/02/27 10:51:10;;;;;;;5.47;3.50;;;9.50;1.00;;;;;;5019675;28;20198;-59
2022/02/27 10:53:46;;;;;;;7.73;3.43;;;9.10;99.90;;;;;;5028001;28;20594;-59
2022/02/27 10:56:17;;;;;;;6.90;2.53;;;9.10;99.90;;;;;;5030965;28;20756;-59
2022/02/27 10:58:48;;;;;;;5.17;2.93;;;9.10;1.00;;;;;;5027740;28;20250;-61
2022/02/27 11:01:23;;;;;;;5.93;2.67;;;8.90;1.00;;;;;;5032789;28;20301;-60
2022/02/27 11:03:52;;;;;;;5.37;3.17;;;9.20;50.00;;;;;;5029297;28;20243;-59
2022/02/27 11:06:20;;;;;;;5.53;2.57;;;9.00;1.00;;;;;;5022549;28;20573;-60
2022/02/27 11:08:47;;;;;;;4.63;3.07;;;8.80;99.90;;;;;;5026206;28;20303;-59
2022/02/27 11:11:15;;;;;;;7.00;2.77;;;9.00;1.00;;;;;;5029806;28;20213;-63
2022/02/27 11:13:46;;;;;;;4.93;2.23;;;9.10;99.90;;;;;;5032265;28;20237;-59
2022/02/27 11:16:14;;;;;;;5.97;2.97;;;9.00;1.00;;;;;;5030839;28;20313;-60
2022/02/27 11:18:43;;;;;;;4.30;2.87;;;8.80;1.00;;;;;;5030245;28;20213;-60
2022/02/27 11:21:13;;;;;;;5.10;2.83;;;9.30;99.90;;;;;;5029932;28;20216;-59
2022/02/27 11:23:42;;;;;;;6.40;2.77;;;9.30;99.90;;;;;;5027258;28;20203;-59
2022/02/27 11:26:10;;;;;;;5.73;2.97;;;9.30;99.90;;;;;;5031059;28;20574;-59
2022/02/27 11:28:42;;;;;;;4.20;2.40;;;9.20;99.90;;;;;;5030460;28;20224;-60
2022/02/27 11:31:13;;;;;;;4.40;2.60;;;9.30;99.90;;;;;;5029697;28;20216;-59
2022/02/27 11:33:39;;;;;;;6.97;2.70;;;9.40;99.90;;;;;;5026517;28;20928;-60
2022/02/27 11:36:22;;;;;;;5.70;2.60;;;9.30;99.90;;;;;;5024204;28;20199;-59
2022/02/27 11:39:05;;;;;;;4.67;2.67;;;9.70;1.00;;;;;;5026905;28;20267;-57
2022/02/27 11:41:48;;;;;;;7.90;2.60;;;9.60;99.90;;;;;;5032368;28;20233;-58
2022/02/27 11:44:17;;;;;;;7.57;2.80;;;9.70;26.00;;;;;;5030233;28;20207;-60
2022/02/27 11:46:46;;;;;;;6.90;2.83;;;9.70;1.00;;;;;;5035781;28;20215;-60
2022/02/27 11:49:16;;;;;;;5.40;2.80;;;9.70;1.00;;;;;;5031792;28;20246;-60
2022/02/27 11:51:47;;;;;;;5.10;2.20;;;9.80;99.90;;;;;;5031916;28;20203;-60
2022/02/27 11:54:25;;;;;;;4.00;2.70;;;10.40;1.00;;;;;;5033315;28;20204;-61
2022/02/27 11:56:58;;;;;;;5.73;2.93;;;10.50;1.00;;;;;;5036074;28;20239;-60
2022/02/27 11:59:52;;;;;;;8.13;3.03;;;10.40;1.00;;;;;;5030050;28;20210;-58
2022/02/27 12:02:35;;;;;;;4.53;2.90;;;10.50;1.00;;;;;;5031364;28;20639;-60
2022/02/27 12:05:11;;;;;;;5.30;2.83;;;10.30;1.00;;;;;;5038746;28;20249;-57
2022/02/27 12:08:11;;;;;;;5.00;2.70;;;10.40;99.90;;;;;;5025949;28;20597;-60
2022/02/27 12:10:48;;;;;;;4.90;2.80;;;10.80;99.90;;;;;;5021736;28;20347;-60
2022/02/27 12:13:25;;;;;;;5.77;2.23;;;10.80;99.90;;;;;;5031453;28;20636;-58
2022/02/27 12:16:13;;;;;;;4.60;2.37;;;10.80;99.90;;;;;;5032339;28;20258;-61
2022/02/27 12:18:52;;;;;;;3.23;2.37;;;11.10;1.00;;;;;;5029623;28;20635;-59
2022/02/27 12:21:36;;;;;;;3.33;2.40;;;11.40;99.90;;;;;;5032930;28;20546;-60
2022/02/27 12:24:14;;;;;;;4.70;2.47;;;11.60;99.90;;;;;;5035044;28;20333;-61
2022/02/27 12:26:47;;;;;;;3.90;2.10;;;11.70;99.90;;;;;;5035736;28;20297;-60
2022/02/27 12:29:28;;;;;;;4.37;2.40;;;11.70;99.90;;;;;;5031810;28;20226;-61
2022/02/27 12:31:56;;;;;;;5.33;2.93;;;11.60;99.90;;;;;;5029899;28;20580;-59
2022/02/27 12:34:25;;;;;;;2.93;2.23;;;11.60;99.90;;;;;;5029262;28;20308;-60
2022/02/27 12:37:00;;;;;;;5.00;2.10;;;11.50;99.90;;;;;;5033560;28;20233;-58
2022/02/27 12:39:31;;;;;;;4.60;2.47;;;11.60;99.90;;;;;;5032845;28;20200;-61
2022/02/27 12:41:58;;;;;;;4.47;2.10;;;11.40;99.90;;;;;;5021386;28;20211;-61
2022/02/27 12:44:37;;;;;;;3.77;2.30;;;11.90;99.90;;;;;;5035743;28;20237;-60
2022/02/27 12:47:08;;;;;;;3.40;2.30;;;11.50;99.90;;;;;;5032252;28;20583;-58
2022/02/27 12:52:38;;;;;;;4.80;1.80;;;11.50;1.00;;;;;;5037027;28;20336;-60
2022/02/27 12:55:13;;;;;;;4.80;2.53;;;11.70;99.90;;;;;;5034653;28;20197;-60
2022/02/27 12:57:48;;;;;;;3.00;2.43;;;11.70;99.90;;;;;;5036630;28;20266;-60
2022/02/27 13:00:18;;;;;;;2.87;2.17;;;11.90;99.90;;;;;;5030810;28;20923;-61
2022/02/27 13:02:45;;;;;;;3.17;2.20;;;11.90;99.90;;;;;;5034506;28;20931;-60
2022/02/27 13:05:12;;;;;;;2.43;2.03;;;12.10;99.90;;;;;;5031439;28;20738;-59
2022/02/27 13:07:40;;;;;;;8.80;2.40;;;11.70;99.90;;;;;;5034217;28;20214;-61
2022/02/27 13:10:14;;;;;;;3.17;2.20;;;12.10;1.00;;;;;;5031897;28;20746;-59
2022/02/27 13:12:41;;;;;;;6.07;2.50;;;11.30;99.90;;;;;;5033024;28;20644;-61